KBIE/BIE METAR and TAF weather

Enter ICAO airport designator
Station Type Date Time Source
KBIE METAR 2019/08/24 19:55 UTC NOAA

KBIE 241955Z AUTO 13004KT 10SM OVC022 22/19 A3007 RMK AO2 T02200191


Station Type Date Time Source
KBIE Decoded METAR 2019/08/24 19:55 UTC NOAA

Station name not available
Aug 24, 2019 - 03:55 PM EDT / 2019.08.24 1955 UTC
Wind: from the SE (130 degrees) at 5 MPH (4 KT):0
Visibility: 10 mile(s):0
Sky conditions: overcast
Temperature: 71.6 F (22.0 C)
Dew Point: 66.4 F (19.1 C)
Relative Humidity: 83%
Pressure (altimeter): 30.07 in. Hg (1018 hPa)
ob: KBIE 241955Z AUTO 13004KT 10SM OVC022 22/19 A3007 RMK AO2 T02200191
cycle: 20

Station Type Date Time Source
KBIE TAF UTC NOAA

Error!

Example: see airport list